sensor_id;sensor_type;location;lat;lon;timestamp;P1;durP1;ratioP1;P2;durP2;ratioP2
22268;SDS011;11303;50.772;19.670;2023-02-28T00:01:23;249.73;;;59.25;;
22268;SDS011;11303;50.772;19.670;2023-02-28T00:03:25;149.95;;;47.83;;
22268;SDS011;11303;50.772;19.670;2023-02-28T00:05:27;69.00;;;27.95;;
22268;SDS011;11303;50.772;19.670;2023-02-28T00:07:29;60.97;;;23.05;;
22268;SDS011;11303;50.772;19.670;2023-02-28T00:09:31;86.32;;;28.08;;
22268;SDS011;11303;50.772;19.670;2023-02-28T00:11:33;109.18;;;41.60;;
22268;SDS011;11303;50.772;19.670;2023-02-28T00:13:35;66.13;;;24.90;;
22268;SDS011;11303;50.772;19.670;2023-02-28T00:15:41;67.35;;;29.92;;
22268;SDS011;11303;50.772;19.670;2023-02-28T00:17:42;52.83;;;21.40;;
22268;SDS011;11303;50.772;19.670;2023-02-28T00:19:45;51.35;;;21.83;;
22268;SDS011;11303;50.772;19.670;2023-02-28T00:21:46;41.33;;;16.25;;
22268;SDS011;11303;50.772;19.670;2023-02-28T00:23:48;39.10;;;15.48;;
22268;SDS011;11303;50.772;19.670;2023-02-28T00:25:50;41.78;;;15.05;;
22268;SDS011;11303;50.772;19.670;2023-02-28T00:27:52;42.40;;;16.58;;
22268;SDS011;11303;50.772;19.670;2023-02-28T00:29:54;36.83;;;15.88;;
22268;SDS011;11303;50.772;19.670;2023-02-28T00:31:55;37.15;;;14.65;;
22268;SDS011;11303;50.772;19.670;2023-02-28T00:33:57;36.08;;;14.55;;
22268;SDS011;11303;50.772;19.670;2023-02-28T00:36:07;33.15;;;15.50;;
22268;SDS011;11303;50.772;19.670;2023-02-28T00:38:10;40.05;;;17.15;;
22268;SDS011;11303;50.772;19.670;2023-02-28T00:40:12;68.80;;;25.00;;
22268;SDS011;11303;50.772;19.670;2023-02-28T00:42:13;53.10;;;22.88;;
22268;SDS011;11303;50.772;19.670;2023-02-28T00:44:15;45.63;;;20.15;;
22268;SDS011;11303;50.772;19.670;2023-02-28T00:46:16;46.08;;;20.88;;
22268;SDS011;11303;50.772;19.670;2023-02-28T00:48:18;49.33;;;23.13;;
22268;SDS011;11303;50.772;19.670;2023-02-28T00:50:20;59.53;;;24.58;;
22268;SDS011;11303;50.772;19.670;2023-02-28T00:52:22;57.58;;;26.13;;
22268;SDS011;11303;50.772;19.670;2023-02-28T00:54:23;58.03;;;25.48;;
22268;SDS011;11303;50.772;19.670;2023-02-28T00:56:25;55.67;;;26.42;;
22268;SDS011;11303;50.772;19.670;2023-02-28T00:58:27;48.15;;;22.50;;
22268;SDS011;11303;50.772;19.670;2023-02-28T01:00:28;46.33;;;22.52;;
22268;SDS011;11303;50.772;19.670;2023-02-28T01:02:30;41.80;;;20.33;;
22268;SDS011;11303;50.772;19.670;2023-02-28T01:04:32;39.40;;;18.30;;
22268;SDS011;11303;50.772;19.670;2023-02-28T01:06:33;37.55;;;16.42;;
22268;SDS011;11303;50.772;19.670;2023-02-28T01:08:35;39.97;;;17.48;;
22268;SDS011;11303;50.772;19.670;2023-02-28T01:10:36;41.65;;;16.92;;
22268;SDS011;11303;50.772;19.670;2023-02-28T01:12:39;36.10;;;15.25;;
22268;SDS011;11303;50.772;19.670;2023-02-28T01:14:41;35.30;;;15.30;;
22268;SDS011;11303;50.772;19.670;2023-02-28T01:16:42;30.90;;;14.63;;
22268;SDS011;11303;50.772;19.670;2023-02-28T01:18:44;37.13;;;15.85;;
22268;SDS011;11303;50.772;19.670;2023-02-28T01:20:46;28.63;;;13.80;;
22268;SDS011;11303;50.772;19.670;2023-02-28T01:22:47;32.33;;;13.05;;
22268;SDS011;11303;50.772;19.670;2023-02-28T01:24:49;23.77;;;12.02;;
22268;SDS011;11303;50.772;19.670;2023-02-28T01:26:50;24.65;;;10.70;;
22268;SDS011;11303;50.772;19.670;2023-02-28T01:28:52;26.52;;;10.82;;
22268;SDS011;11303;50.772;19.670;2023-02-28T01:30:54;23.33;;;11.18;;
22268;SDS011;11303;50.772;19.670;2023-02-28T01:32:55;28.55;;;10.75;;
22268;SDS011;11303;50.772;19.670;2023-02-28T01:34:57;26.02;;;12.52;;
22268;SDS011;11303;50.772;19.670;2023-02-28T01:36:59;39.38;;;15.57;;
22268;SDS011;11303;50.772;19.670;2023-02-28T01:39:00;36.92;;;15.40;;
22268;SDS011;11303;50.772;19.670;2023-02-28T01:41:02;34.03;;;14.68;;
22268;SDS011;11303;50.772;19.670;2023-02-28T01:43:07;26.52;;;12.93;;
22268;SDS011;11303;50.772;19.670;2023-02-28T01:45:26;22.95;;;9.05;;
22268;SDS011;11303;50.772;19.670;2023-02-28T01:47:30;21.27;;;9.70;;
22268;SDS011;11303;50.772;19.670;2023-02-28T01:49:34;25.95;;;10.25;;
22268;SDS011;11303;50.772;19.670;2023-02-28T01:51:40;26.60;;;10.38;;
22268;SDS011;11303;50.772;19.670;2023-02-28T01:53:49;29.88;;;11.30;;
22268;SDS011;11303;50.772;19.670;2023-02-28T01:55:54;26.48;;;11.98;;
22268;SDS011;11303;50.772;19.670;2023-02-28T01:57:57;30.52;;;11.68;;
22268;SDS011;11303;50.772;19.670;2023-02-28T02:00:03;25.30;;;11.93;;
22268;SDS011;11303;50.772;19.670;2023-02-28T02:02:09;23.30;;;11.23;;
22268;SDS011;11303;50.772;19.670;2023-02-28T02:04:10;25.98;;;10.40;;
22268;SDS011;11303;50.772;19.670;2023-02-28T02:06:12;22.25;;;10.15;;
22268;SDS011;11303;50.772;19.670;2023-02-28T02:08:19;18.58;;;9.57;;
22268;SDS011;11303;50.772;19.670;2023-02-28T02:10:40;19.48;;;10.07;;
22268;SDS011;11303;50.772;19.670;2023-02-28T02:15:12;20.33;;;9.75;;
22268;SDS011;11303;50.772;19.670;2023-02-28T02:22:12;29.08;;;11.88;;
22268;SDS011;11303;50.772;19.670;2023-02-28T02:45:28;15.48;;;7.40;;
22268;SDS011;11303;50.772;19.670;2023-02-28T02:47:37;18.10;;;8.50;;
22268;SDS011;11303;50.772;19.670;2023-02-28T02:49:42;24.92;;;10.38;;
22268;SDS011;11303;50.772;19.670;2023-02-28T02:51:48;25.70;;;11.88;;
22268;SDS011;11303;50.772;19.670;2023-02-28T02:53:54;24.58;;;11.07;;
22268;SDS011;11303;50.772;19.670;2023-02-28T02:58:05;21.60;;;9.43;;
22268;SDS011;11303;50.772;19.670;2023-02-28T03:00:11;18.95;;;8.82;;
22268;SDS011;11303;50.772;19.670;2023-02-28T03:02:15;19.17;;;9.05;;
22268;SDS011;11303;50.772;19.670;2023-02-28T03:04:20;28.25;;;11.32;;
22268;SDS011;11303;50.772;19.670;2023-02-28T03:06:24;22.63;;;9.02;;
22268;SDS011;11303;50.772;19.670;2023-02-28T03:08:27;18.45;;;8.50;;
22268;SDS011;11303;50.772;19.670;2023-02-28T03:12:41;18.98;;;9.68;;
22268;SDS011;11303;50.772;19.670;2023-02-28T03:15:10;17.08;;;8.93;;
22268;SDS011;11303;50.772;19.670;2023-02-28T03:20:04;36.35;;;13.20;;
22268;SDS011;11303;50.772;19.670;2023-02-28T03:22:19;28.13;;;12.07;;
22268;SDS011;11303;50.772;19.670;2023-02-28T03:24:49;22.38;;;10.27;;
22268;SDS011;11303;50.772;19.670;2023-02-28T03:27:06;22.55;;;10.13;;
22268;SDS011;11303;50.772;19.670;2023-02-28T03:29:20;20.25;;;10.98;;
22268;SDS011;11303;50.772;19.670;2023-02-28T03:31:33;20.40;;;9.13;;
22268;SDS011;11303;50.772;19.670;2023-02-28T03:33:42;22.17;;;9.63;;
22268;SDS011;11303;50.772;19.670;2023-02-28T03:35:48;27.17;;;10.93;;
22268;SDS011;11303;50.772;19.670;2023-02-28T03:37:55;27.50;;;9.68;;
22268;SDS011;11303;50.772;19.670;2023-02-28T03:40:05;22.95;;;9.10;;
22268;SDS011;11303;50.772;19.670;2023-02-28T03:44:39;27.40;;;10.10;;
22268;SDS011;11303;50.772;19.670;2023-02-28T03:46:49;23.33;;;10.27;;
22268;SDS011;11303;50.772;19.670;2023-02-28T03:48:56;20.33;;;9.93;;
22268;SDS011;11303;50.772;19.670;2023-02-28T03:51:03;21.60;;;11.30;;
22268;SDS011;11303;50.772;19.670;2023-02-28T03:53:21;21.60;;;10.55;;
22268;SDS011;11303;50.772;19.670;2023-02-28T03:55:53;27.30;;;11.40;;
22268;SDS011;11303;50.772;19.670;2023-02-28T03:58:04;23.70;;;12.40;;
22268;SDS011;11303;50.772;19.670;2023-02-28T04:00:17;30.52;;;13.63;;
22268;SDS011;11303;50.772;19.670;2023-02-28T04:02:22;37.05;;;13.60;;
22268;SDS011;11303;50.772;19.670;2023-02-28T04:04:24;24.52;;;11.73;;
22268;SDS011;11303;50.772;19.670;2023-02-28T04:06:26;30.00;;;14.50;;
22268;SDS011;11303;50.772;19.670;2023-02-28T04:08:28;71.35;;;24.77;;
22268;SDS011;11303;50.772;19.670;2023-02-28T04:10:30;18.38;;;10.20;;
22268;SDS011;11303;50.772;19.670;2023-02-28T04:12:31;26.52;;;14.70;;
22268;SDS011;11303;50.772;19.670;2023-02-28T04:14:33;19.15;;;9.80;;
22268;SDS011;11303;50.772;19.670;2023-02-28T04:16:35;18.15;;;8.77;;
22268;SDS011;11303;50.772;19.670;2023-02-28T04:18:39;22.38;;;10.43;;
22268;SDS011;11303;50.772;19.670;2023-02-28T04:20:41;93.78;;;32.20;;
22268;SDS011;11303;50.772;19.670;2023-02-28T04:22:42;57.95;;;22.30;;
22268;SDS011;11303;50.772;19.670;2023-02-28T04:24:44;33.92;;;14.30;;
22268;SDS011;11303;50.772;19.670;2023-02-28T04:26:47;26.35;;;12.13;;
22268;SDS011;11303;50.772;19.670;2023-02-28T04:28:50;37.92;;;17.30;;
22268;SDS011;11303;50.772;19.670;2023-02-28T04:30:58;37.13;;;17.00;;
22268;SDS011;11303;50.772;19.670;2023-02-28T04:33:03;54.35;;;24.85;;
22268;SDS011;11303;50.772;19.670;2023-02-28T04:35:05;56.95;;;30.77;;
22268;SDS011;11303;50.772;19.670;2023-02-28T04:37:07;46.38;;;25.65;;
22268;SDS011;11303;50.772;19.670;2023-02-28T04:39:15;47.03;;;25.35;;
22268;SDS011;11303;50.772;19.670;2023-02-28T04:41:17;31.60;;;17.48;;
22268;SDS011;11303;50.772;19.670;2023-02-28T04:43:19;23.95;;;11.90;;
22268;SDS011;11303;50.772;19.670;2023-02-28T04:45:21;25.48;;;12.27;;
22268;SDS011;11303;50.772;19.670;2023-02-28T04:47:22;22.73;;;10.80;;
22268;SDS011;11303;50.772;19.670;2023-02-28T04:49:24;22.08;;;12.07;;
22268;SDS011;11303;50.772;19.670;2023-02-28T04:51:26;32.55;;;14.18;;
22268;SDS011;11303;50.772;19.670;2023-02-28T04:53:28;29.48;;;14.63;;
22268;SDS011;11303;50.772;19.670;2023-02-28T04:55:30;36.95;;;19.63;;
22268;SDS011;11303;50.772;19.670;2023-02-28T04:57:32;35.30;;;17.42;;
22268;SDS011;11303;50.772;19.670;2023-02-28T04:59:33;31.10;;;16.15;;
22268;SDS011;11303;50.772;19.670;2023-02-28T05:01:35;29.00;;;15.45;;
22268;SDS011;11303;50.772;19.670;2023-02-28T05:03:38;35.78;;;17.25;;
22268;SDS011;11303;50.772;19.670;2023-02-28T05:05:41;39.95;;;19.52;;
22268;SDS011;11303;50.772;19.670;2023-02-28T05:07:43;37.03;;;17.00;;
22268;SDS011;11303;50.772;19.670;2023-02-28T05:09:46;30.75;;;15.32;;
22268;SDS011;11303;50.772;19.670;2023-02-28T05:11:47;39.92;;;18.90;;
22268;SDS011;11303;50.772;19.670;2023-02-28T05:13:49;50.25;;;22.60;;
22268;SDS011;11303;50.772;19.670;2023-02-28T05:15:51;58.35;;;25.02;;
22268;SDS011;11303;50.772;19.670;2023-02-28T05:17:53;86.05;;;35.30;;
22268;SDS011;11303;50.772;19.670;2023-02-28T05:19:55;71.53;;;31.00;;
22268;SDS011;11303;50.772;19.670;2023-02-28T05:22:14;69.18;;;28.70;;
22268;SDS011;11303;50.772;19.670;2023-02-28T05:24:18;71.35;;;28.42;;
22268;SDS011;11303;50.772;19.670;2023-02-28T05:26:26;100.53;;;36.47;;
22268;SDS011;11303;50.772;19.670;2023-02-28T05:28:29;111.72;;;41.60;;
22268;SDS011;11303;50.772;19.670;2023-02-28T05:30:31;98.63;;;39.65;;
22268;SDS011;11303;50.772;19.670;2023-02-28T05:32:33;84.40;;;34.83;;
22268;SDS011;11303;50.772;19.670;2023-02-28T05:34:35;53.67;;;23.73;;
22268;SDS011;11303;50.772;19.670;2023-02-28T05:36:37;47.83;;;22.02;;
22268;SDS011;11303;50.772;19.670;2023-02-28T05:38:39;53.55;;;23.60;;
22268;SDS011;11303;50.772;19.670;2023-02-28T05:40:41;55.00;;;25.95;;
22268;SDS011;11303;50.772;19.670;2023-02-28T05:42:43;59.00;;;27.25;;
22268;SDS011;11303;50.772;19.670;2023-02-28T05:44:44;57.40;;;29.25;;
22268;SDS011;11303;50.772;19.670;2023-02-28T05:46:46;62.13;;;31.98;;
22268;SDS011;11303;50.772;19.670;2023-02-28T05:48:48;51.90;;;28.58;;
22268;SDS011;11303;50.772;19.670;2023-02-28T05:50:50;52.85;;;28.67;;
22268;SDS011;11303;50.772;19.670;2023-02-28T05:52:52;52.08;;;28.42;;
22268;SDS011;11303;50.772;19.670;2023-02-28T05:54:53;66.25;;;33.90;;
22268;SDS011;11303;50.772;19.670;2023-02-28T05:56:55;51.50;;;28.45;;
22268;SDS011;11303;50.772;19.670;2023-02-28T05:58:56;45.10;;;24.65;;
22268;SDS011;11303;50.772;19.670;2023-02-28T06:00:58;45.72;;;24.48;;
22268;SDS011;11303;50.772;19.670;2023-02-28T06:03:00;52.72;;;29.27;;
22268;SDS011;11303;50.772;19.670;2023-02-28T06:05:03;54.92;;;29.25;;
22268;SDS011;11303;50.772;19.670;2023-02-28T06:07:05;54.78;;;28.15;;
22268;SDS011;11303;50.772;19.670;2023-02-28T06:09:06;102.25;;;37.88;;
22268;SDS011;11303;50.772;19.670;2023-02-28T06:11:08;87.95;;;26.25;;
22268;SDS011;11303;50.772;19.670;2023-02-28T06:13:09;68.22;;;20.58;;
22268;SDS011;11303;50.772;19.670;2023-02-28T06:15:14;65.20;;;23.65;;
22268;SDS011;11303;50.772;19.670;2023-02-28T06:17:16;120.03;;;45.13;;
22268;SDS011;11303;50.772;19.670;2023-02-28T06:19:18;64.85;;;23.20;;
22268;SDS011;11303;50.772;19.670;2023-02-28T06:21:20;31.58;;;15.82;;
22268;SDS011;11303;50.772;19.670;2023-02-28T06:23:21;40.42;;;18.33;;
22268;SDS011;11303;50.772;19.670;2023-02-28T06:25:23;61.88;;;24.05;;
22268;SDS011;11303;50.772;19.670;2023-02-28T06:27:25;39.90;;;17.38;;
22268;SDS011;11303;50.772;19.670;2023-02-28T06:29:27;29.15;;;15.70;;
22268;SDS011;11303;50.772;19.670;2023-02-28T06:31:28;44.22;;;22.05;;
22268;SDS011;11303;50.772;19.670;2023-02-28T06:33:31;28.40;;;16.48;;
22268;SDS011;11303;50.772;19.670;2023-02-28T06:35:32;39.08;;;21.10;;
22268;SDS011;11303;50.772;19.670;2023-02-28T06:37:34;46.85;;;23.00;;
22268;SDS011;11303;50.772;19.670;2023-02-28T06:39:35;36.63;;;19.25;;
22268;SDS011;11303;50.772;19.670;2023-02-28T06:41:37;45.95;;;24.65;;
22268;SDS011;11303;50.772;19.670;2023-02-28T06:43:54;57.85;;;26.50;;
22268;SDS011;11303;50.772;19.670;2023-02-28T06:45:57;44.15;;;21.83;;
22268;SDS011;11303;50.772;19.670;2023-02-28T06:48:00;44.95;;;21.42;;
22268;SDS011;11303;50.772;19.670;2023-02-28T06:50:02;51.70;;;24.25;;
22268;SDS011;11303;50.772;19.670;2023-02-28T06:52:04;57.15;;;26.05;;
22268;SDS011;11303;50.772;19.670;2023-02-28T06:54:06;52.17;;;26.17;;
22268;SDS011;11303;50.772;19.670;2023-02-28T06:56:11;53.85;;;25.75;;
22268;SDS011;11303;50.772;19.670;2023-02-28T06:58:14;68.60;;;28.25;;
22268;SDS011;11303;50.772;19.670;2023-02-28T07:00:21;74.60;;;33.20;;
22268;SDS011;11303;50.772;19.670;2023-02-28T07:02:23;73.93;;;34.72;;
22268;SDS011;11303;50.772;19.670;2023-02-28T07:04:24;68.47;;;31.92;;
22268;SDS011;11303;50.772;19.670;2023-02-28T07:06:27;77.70;;;34.67;;
22268;SDS011;11303;50.772;19.670;2023-02-28T07:08:28;79.05;;;38.45;;
22268;SDS011;11303;50.772;19.670;2023-02-28T07:10:30;89.03;;;43.85;;
22268;SDS011;11303;50.772;19.670;2023-02-28T07:12:32;103.22;;;42.63;;
22268;SDS011;11303;50.772;19.670;2023-02-28T07:14:33;68.88;;;33.22;;
22268;SDS011;11303;50.772;19.670;2023-02-28T07:16:38;61.42;;;28.58;;
22268;SDS011;11303;50.772;19.670;2023-02-28T07:18:39;49.45;;;25.08;;
22268;SDS011;11303;50.772;19.670;2023-02-28T07:20:41;54.25;;;25.15;;
22268;SDS011;11303;50.772;19.670;2023-02-28T07:22:42;51.75;;;27.75;;
22268;SDS011;11303;50.772;19.670;2023-02-28T07:24:44;52.63;;;27.23;;
22268;SDS011;11303;50.772;19.670;2023-02-28T07:26:46;53.50;;;24.63;;
22268;SDS011;11303;50.772;19.670;2023-02-28T07:28:48;55.85;;;25.30;;
22268;SDS011;11303;50.772;19.670;2023-02-28T07:30:50;62.20;;;28.05;;
22268;SDS011;11303;50.772;19.670;2023-02-28T07:32:52;53.53;;;23.45;;
22268;SDS011;11303;50.772;19.670;2023-02-28T07:34:55;70.88;;;30.13;;
22268;SDS011;11303;50.772;19.670;2023-02-28T07:36:57;69.07;;;32.92;;
22268;SDS011;11303;50.772;19.670;2023-02-28T07:38:59;62.80;;;28.63;;
22268;SDS011;11303;50.772;19.670;2023-02-28T07:41:00;46.97;;;22.75;;
22268;SDS011;11303;50.772;19.670;2023-02-28T07:43:05;38.20;;;18.65;;
22268;SDS011;11303;50.772;19.670;2023-02-28T07:45:07;52.40;;;23.63;;
22268;SDS011;11303;50.772;19.670;2023-02-28T07:47:12;33.35;;;16.95;;
22268;SDS011;11303;50.772;19.670;2023-02-28T07:49:14;55.03;;;21.73;;
22268;SDS011;11303;50.772;19.670;2023-02-28T07:51:15;34.53;;;15.98;;
22268;SDS011;11303;50.772;19.670;2023-02-28T07:53:17;23.75;;;14.15;;
22268;SDS011;11303;50.772;19.670;2023-02-28T07:55:19;25.52;;;14.02;;
22268;SDS011;11303;50.772;19.670;2023-02-28T07:57:20;25.42;;;14.07;;
22268;SDS011;11303;50.772;19.670;2023-02-28T07:59:22;60.03;;;35.58;;
22268;SDS011;11303;50.772;19.670;2023-02-28T08:01:24;30.48;;;16.75;;
22268;SDS011;11303;50.772;19.670;2023-02-28T08:03:25;31.30;;;16.45;;
22268;SDS011;11303;50.772;19.670;2023-02-28T08:05:27;26.48;;;14.45;;
22268;SDS011;11303;50.772;19.670;2023-02-28T08:07:29;35.75;;;17.00;;
22268;SDS011;11303;50.772;19.670;2023-02-28T08:09:30;30.60;;;15.30;;
22268;SDS011;11303;50.772;19.670;2023-02-28T08:11:32;58.33;;;25.33;;
22268;SDS011;11303;50.772;19.670;2023-02-28T08:13:33;21.35;;;12.70;;
22268;SDS011;11303;50.772;19.670;2023-02-28T08:15:35;24.58;;;13.02;;
22268;SDS011;11303;50.772;19.670;2023-02-28T08:17:37;83.10;;;44.92;;
22268;SDS011;11303;50.772;19.670;2023-02-28T08:19:39;19.65;;;11.35;;
22268;SDS011;11303;50.772;19.670;2023-02-28T08:21:40;31.08;;;14.77;;
22268;SDS011;11303;50.772;19.670;2023-02-28T08:23:42;22.38;;;12.07;;
22268;SDS011;11303;50.772;19.670;2023-02-28T08:25:44;28.67;;;14.38;;
22268;SDS011;11303;50.772;19.670;2023-02-28T08:27:45;47.88;;;21.55;;
22268;SDS011;11303;50.772;19.670;2023-02-28T08:29:47;22.27;;;12.07;;
22268;SDS011;11303;50.772;19.670;2023-02-28T08:31:48;18.92;;;10.05;;
22268;SDS011;11303;50.772;19.670;2023-02-28T08:33:50;17.40;;;10.15;;
22268;SDS011;11303;50.772;19.670;2023-02-28T08:35:54;18.25;;;9.90;;
22268;SDS011;11303;50.772;19.670;2023-02-28T08:37:57;17.27;;;9.15;;
22268;SDS011;11303;50.772;19.670;2023-02-28T08:39:59;14.50;;;8.35;;
22268;SDS011;11303;50.772;19.670;2023-02-28T08:42:01;39.88;;;15.77;;
22268;SDS011;11303;50.772;19.670;2023-02-28T08:44:08;52.35;;;19.20;;
22268;SDS011;11303;50.772;19.670;2023-02-28T08:46:13;35.55;;;14.48;;
22268;SDS011;11303;50.772;19.670;2023-02-28T08:48:15;61.60;;;20.52;;
22268;SDS011;11303;50.772;19.670;2023-02-28T08:50:19;26.80;;;11.18;;
22268;SDS011;11303;50.772;19.670;2023-02-28T08:52:21;20.45;;;10.43;;
22268;SDS011;11303;50.772;19.670;2023-02-28T08:54:23;18.45;;;9.95;;
22268;SDS011;11303;50.772;19.670;2023-02-28T08:56:25;13.32;;;7.60;;
22268;SDS011;11303;50.772;19.670;2023-02-28T08:58:28;37.20;;;14.88;;
22268;SDS011;11303;50.772;19.670;2023-02-28T09:00:30;29.45;;;12.10;;
22268;SDS011;11303;50.772;19.670;2023-02-28T09:02:31;21.52;;;10.43;;
22268;SDS011;11303;50.772;19.670;2023-02-28T09:04:33;17.02;;;8.93;;
22268;SDS011;11303;50.772;19.670;2023-02-28T09:06:35;27.23;;;13.68;;
22268;SDS011;11303;50.772;19.670;2023-02-28T09:08:37;110.35;;;50.58;;
22268;SDS011;11303;50.772;19.670;2023-02-28T09:10:38;13.18;;;7.85;;
22268;SDS011;11303;50.772;19.670;2023-02-28T09:12:40;18.60;;;8.57;;
22268;SDS011;11303;50.772;19.670;2023-02-28T09:14:43;18.77;;;9.35;;
22268;SDS011;11303;50.772;19.670;2023-02-28T09:16:44;20.45;;;9.43;;
22268;SDS011;11303;50.772;19.670;2023-02-28T09:18:46;24.65;;;10.40;;
22268;SDS011;11303;50.772;19.670;2023-02-28T09:20:48;19.60;;;10.57;;
22268;SDS011;11303;50.772;19.670;2023-02-28T09:22:49;18.92;;;10.32;;
22268;SDS011;11303;50.772;19.670;2023-02-28T09:24:51;22.98;;;11.70;;
22268;SDS011;11303;50.772;19.670;2023-02-28T09:26:53;52.83;;;22.33;;
22268;SDS011;11303;50.772;19.670;2023-02-28T09:29:04;19.50;;;9.88;;
22268;SDS011;11303;50.772;19.670;2023-02-28T09:31:06;74.15;;;23.15;;
22268;SDS011;11303;50.772;19.670;2023-02-28T09:33:07;36.75;;;13.82;;
22268;SDS011;11303;50.772;19.670;2023-02-28T09:35:09;26.80;;;11.90;;
22268;SDS011;11303;50.772;19.670;2023-02-28T09:37:14;48.70;;;17.83;;
22268;SDS011;11303;50.772;19.670;2023-02-28T09:39:16;25.67;;;11.98;;
22268;SDS011;11303;50.772;19.670;2023-02-28T09:41:19;16.88;;;7.65;;
22268;SDS011;11303;50.772;19.670;2023-02-28T09:43:26;19.98;;;10.38;;
22268;SDS011;11303;50.772;19.670;2023-02-28T09:45:33;14.88;;;8.02;;
22268;SDS011;11303;50.772;19.670;2023-02-28T09:47:40;13.23;;;7.25;;
22268;SDS011;11303;50.772;19.670;2023-02-28T09:49:46;15.60;;;8.10;;
22268;SDS011;11303;50.772;19.670;2023-02-28T09:52:05;12.10;;;7.30;;
22268;SDS011;11303;50.772;19.670;2023-02-28T09:54:18;13.55;;;7.75;;
22268;SDS011;11303;50.772;19.670;2023-02-28T09:56:27;14.43;;;7.80;;
22268;SDS011;11303;50.772;19.670;2023-02-28T09:58:47;13.13;;;7.60;;
22268;SDS011;11303;50.772;19.670;2023-02-28T10:00:56;13.65;;;7.78;;
22268;SDS011;11303;50.772;19.670;2023-02-28T10:03:28;16.33;;;7.22;;
22268;SDS011;11303;50.772;19.670;2023-02-28T10:05:41;14.85;;;7.97;;
22268;SDS011;11303;50.772;19.670;2023-02-28T10:08:28;12.38;;;7.30;;
22268;SDS011;11303;50.772;19.670;2023-02-28T10:10:43;29.80;;;14.93;;
22268;SDS011;11303;50.772;19.670;2023-02-28T10:12:47;29.05;;;15.25;;
22268;SDS011;11303;50.772;19.670;2023-02-28T10:14:52;26.08;;;11.18;;
22268;SDS011;11303;50.772;19.670;2023-02-28T10:16:57;11.63;;;7.28;;
22268;SDS011;11303;50.772;19.670;2023-02-28T10:19:03;14.25;;;7.95;;
22268;SDS011;11303;50.772;19.670;2023-02-28T10:21:15;13.38;;;7.47;;
22268;SDS011;11303;50.772;19.670;2023-02-28T10:23:24;12.18;;;6.88;;
22268;SDS011;11303;50.772;19.670;2023-02-28T10:25:28;15.30;;;8.60;;
22268;SDS011;11303;50.772;19.670;2023-02-28T10:27:31;18.73;;;7.95;;
22268;SDS011;11303;50.772;19.670;2023-02-28T10:29:33;38.13;;;18.00;;
22268;SDS011;11303;50.772;19.670;2023-02-28T10:31:35;17.05;;;10.85;;
22268;SDS011;11303;50.772;19.670;2023-02-28T10:33:36;10.65;;;6.47;;
22268;SDS011;11303;50.772;19.670;2023-02-28T10:35:38;11.82;;;7.20;;
22268;SDS011;11303;50.772;19.670;2023-02-28T10:37:41;12.68;;;7.60;;
22268;SDS011;11303;50.772;19.670;2023-02-28T10:39:45;13.88;;;7.53;;
22268;SDS011;11303;50.772;19.670;2023-02-28T10:41:47;10.57;;;6.47;;
22268;SDS011;11303;50.772;19.670;2023-02-28T10:43:49;12.95;;;7.93;;
22268;SDS011;11303;50.772;19.670;2023-02-28T10:52:48;10.18;;;6.72;;
22268;SDS011;11303;50.772;19.670;2023-02-28T10:54:50;14.10;;;8.38;;
22268;SDS011;11303;50.772;19.670;2023-02-28T10:57:20;17.95;;;10.43;;
22268;SDS011;11303;50.772;19.670;2023-02-28T10:59:29;12.55;;;7.78;;
22268;SDS011;11303;50.772;19.670;2023-02-28T11:03:41;15.32;;;7.95;;
22268;SDS011;11303;50.772;19.670;2023-02-28T11:05:43;12.60;;;7.35;;
22268;SDS011;11303;50.772;19.670;2023-02-28T11:07:50;14.10;;;7.20;;
22268;SDS011;11303;50.772;19.670;2023-02-28T11:09:55;11.80;;;7.20;;
22268;SDS011;11303;50.772;19.670;2023-02-28T11:11:58;14.48;;;7.70;;
22268;SDS011;11303;50.772;19.670;2023-02-28T11:14:04;19.25;;;10.60;;
22268;SDS011;11303;50.772;19.670;2023-02-28T11:16:08;13.25;;;7.57;;
22268;SDS011;11303;50.772;19.670;2023-02-28T11:20:18;12.80;;;6.43;;
22268;SDS011;11303;50.772;19.670;2023-02-28T11:22:26;12.68;;;7.75;;
22268;SDS011;11303;50.772;19.670;2023-02-28T11:24:33;16.70;;;8.13;;
22268;SDS011;11303;50.772;19.670;2023-02-28T11:26:42;15.32;;;8.23;;
22268;SDS011;11303;50.772;19.670;2023-02-28T11:28:46;18.33;;;9.30;;
22268;SDS011;11303;50.772;19.670;2023-02-28T11:30:59;12.23;;;7.63;;
22268;SDS011;11303;50.772;19.670;2023-02-28T11:33:32;24.77;;;12.07;;
22268;SDS011;11303;50.772;19.670;2023-02-28T11:37:49;15.52;;;7.60;;
22268;SDS011;11303;50.772;19.670;2023-02-28T11:39:51;12.80;;;7.53;;
22268;SDS011;11303;50.772;19.670;2023-02-28T11:41:59;15.30;;;8.07;;
22268;SDS011;11303;50.772;19.670;2023-02-28T11:44:05;13.60;;;8.27;;
22268;SDS011;11303;50.772;19.670;2023-02-28T11:48:27;30.95;;;14.85;;
22268;SDS011;11303;50.772;19.670;2023-02-28T11:50:38;13.93;;;8.43;;
22268;SDS011;11303;50.772;19.670;2023-02-28T11:52:54;28.13;;;13.40;;
22268;SDS011;11303;50.772;19.670;2023-02-28T11:55:16;23.35;;;10.45;;
22268;SDS011;11303;50.772;19.670;2023-02-28T12:06:47;29.08;;;11.25;;
22268;SDS011;11303;50.772;19.670;2023-02-28T12:09:03;17.55;;;8.48;;
22268;SDS011;11303;50.772;19.670;2023-02-28T12:11:40;21.02;;;9.27;;
22268;SDS011;11303;50.772;19.670;2023-02-28T12:13:45;22.15;;;10.25;;
22268;SDS011;11303;50.772;19.670;2023-02-28T12:16:07;26.30;;;9.02;;
22268;SDS011;11303;50.772;19.670;2023-02-28T12:19:05;13.57;;;7.80;;
22268;SDS011;11303;50.772;19.670;2023-02-28T12:20:54;12.88;;;7.43;;
22268;SDS011;11303;50.772;19.670;2023-02-28T12:27:42;13.80;;;8.02;;
22268;SDS011;11303;50.772;19.670;2023-02-28T12:32:19;12.80;;;7.38;;
22268;SDS011;11303;50.772;19.670;2023-02-28T12:34:27;10.23;;;6.88;;
22268;SDS011;11303;50.772;19.670;2023-02-28T12:36:32;11.88;;;6.72;;
22268;SDS011;11303;50.772;19.670;2023-02-28T12:38:38;13.32;;;7.93;;
22268;SDS011;11303;50.772;19.670;2023-02-28T12:41:09;16.33;;;7.63;;
22268;SDS011;11303;50.772;19.670;2023-02-28T12:43:13;18.42;;;8.30;;
22268;SDS011;11303;50.772;19.670;2023-02-28T12:45:24;13.85;;;7.53;;
22268;SDS011;11303;50.772;19.670;2023-02-28T12:47:42;31.05;;;12.50;;
22268;SDS011;11303;50.772;19.670;2023-02-28T12:49:46;16.05;;;8.63;;
22268;SDS011;11303;50.772;19.670;2023-02-28T12:51:52;14.00;;;8.05;;
22268;SDS011;11303;50.772;19.670;2023-02-28T12:53:59;13.90;;;7.50;;
22268;SDS011;11303;50.772;19.670;2023-02-28T12:58:20;13.05;;;7.43;;
22268;SDS011;11303;50.772;19.670;2023-02-28T13:00:29;18.65;;;8.13;;
22268;SDS011;11303;50.772;19.670;2023-02-28T13:10:05;23.10;;;12.00;;
22268;SDS011;11303;50.772;19.670;2023-02-28T13:12:14;14.90;;;8.35;;
22268;SDS011;11303;50.772;19.670;2023-02-28T13:14:28;16.33;;;8.40;;
22268;SDS011;11303;50.772;19.670;2023-02-28T13:19:08;19.10;;;9.80;;
22268;SDS011;11303;50.772;19.670;2023-02-28T13:21:26;14.57;;;9.00;;
22268;SDS011;11303;50.772;19.670;2023-02-28T13:25:52;16.58;;;9.50;;
22268;SDS011;11303;50.772;19.670;2023-02-28T13:27:55;17.45;;;9.93;;